North Webster, IN

5:48 AM EDT on September 15, 2014 (GMT -0400)
Auburn | Change Station
CLOSE
Current Station
Airport
Location: Auburn,
Elevation: 879 ft
Nearby Weather Stations

Elev 879 ft 41.31 °N, 85.06 °W | Updated 13 minutes ago

Clear
Clear
45 °F
Feels Like 45 °F
N
0
Wind Variable Wind from North

Today
High -- | Low -- °F
--% Chance of Precip.
Yesterday
High -- | Low -- °F
Precip. -- in
7:23 AM 7:51 PM
Waning Gibbous, 57% visible
Pressure 30.22 in
Visibility 10.0 miles
Clouds Clear
Dew Point 43 °F
Humidity 93%
Rainfall 0.00 in
Snow Depth Not available.
UV 0 out of 12
Pollen 5.60 out of 12
Air Quality Not available.
Flu Activity Not available.
METAR KGWB 150935Z AUTO 00000KT 10SM CLR 07/06 A3022 RMK AO2

More Conditions Fewer Conditions

Pressure 30.22 in
Visibility 10.0 miles
Clouds Clear
Dew Point 43 °F
Humidity 93%
Rainfall 0.00 in
Snow Depth Not available.
UV 0 out of 12
Pollen 5.60 out of 12
Air Quality Not available.
Flu Activity Not available.
METAR KGWB 150935Z AUTO 00000KT 10SM CLR 07/06 A3022 RMK AO2

More Conditions Fewer Conditions

10-Day Weather Forecast

Almanac

Astronomy

Sep. 15, 2014 Rise Set
Actual Time 7:23 AM EDT 7:51 PM EDT
Civil Twilight 6:55 AM EDT 8:19 PM EDT
Nautical Twilight 6:22 AM EDT 8:52 PM EDT
Astronomical Twilight 5:49 AM EDT 9:25 PM EDT
Moon No Moon Rise 2:26 PM EDT
Length of Visible Light 13h 24m
Length of Day
12h 28m
Tomorrow will be 2m 43s shorter.
Waning Gibbous, 57% of the Moon is Illuminated
Today
Waning Gibbous
Sep 15
Last Quarter
Sep 24
New
Oct 1
First Quarter
Oct 8
Full

Today's Extremes

State Highs State Lows

Community

WunderPhotos

Upload Photos

1,753,427 photos uploaded!

Nearby

Snow Depth

Station Depth Elevation
No new snow has been reported.

Earthquake Activity

City Distance Mag. Time & Date
No recent earthquake activity has been reported nearby.
Minimum magnitude displayed is 2.5.

Coastal Water Temperatures

Place Temperature
No Stations Reporting

Nearby Weather Stations